createdAt,value
2024-01-25T00:02:13.545Z,82.65
2024-01-25T00:04:40.568Z,81.76
2024-01-25T00:07:09.943Z,81.99
2024-01-25T00:09:37.213Z,81.00
2024-01-25T00:12:04.394Z,78.53
2024-01-25T00:14:31.305Z,80.75
2024-01-25T00:16:58.183Z,82.32
2024-01-25T00:19:25.184Z,82.18
2024-01-25T00:21:52.310Z,82.05
2024-01-25T00:24:19.252Z,81.91
2024-01-25T00:26:46.132Z,81.81
2024-01-25T00:29:13.029Z,81.93
2024-01-25T00:31:39.884Z,81.67
2024-01-25T00:34:07.058Z,81.60
2024-01-25T00:36:34.416Z,81.26
2024-01-25T00:39:01.561Z,81.46
2024-01-25T00:41:31.623Z,81.70
2024-01-25T00:43:58.901Z,81.24
2024-01-25T00:46:26.178Z,81.34
2024-01-25T00:48:53.521Z,81.60
2024-01-25T00:51:23.261Z,81.83
2024-01-25T00:53:50.333Z,81.82
2024-01-25T00:56:17.935Z,80.13
2024-01-25T00:58:45.146Z,81.60
2024-01-25T01:01:12.439Z,81.81
2024-01-25T01:03:40.085Z,81.72
2024-01-25T01:06:07.828Z,80.97
2024-01-25T01:08:34.979Z,81.50
2024-01-25T01:11:01.932Z,82.12
2024-01-25T01:13:28.858Z,82.16
2024-01-25T01:15:55.892Z,82.50
2024-01-25T01:18:22.965Z,82.03
2024-01-25T01:20:49.919Z,82.05
2024-01-25T01:23:16.860Z,82.43
2024-01-25T01:25:43.768Z,82.48
2024-01-25T01:28:10.750Z,82.44
2024-01-25T01:30:37.687Z,82.21
2024-01-25T01:33:04.974Z,82.38
2024-01-25T01:35:31.976Z,80.88
2024-01-25T01:37:58.910Z,82.33
2024-01-25T01:40:25.840Z,81.69
2024-01-25T01:42:52.963Z,82.21
2024-01-25T01:45:19.843Z,80.30
2024-01-25T01:47:46.886Z,82.49
2024-01-25T01:50:14.670Z,82.22
2024-01-25T01:52:43.374Z,82.10
2024-01-25T01:55:10.539Z,82.50
2024-01-25T01:57:38.416Z,82.59
2024-01-25T02:00:09.829Z,82.44
2024-01-25T02:02:37.069Z,82.15
2024-01-25T02:05:04.082Z,81.10
2024-01-25T02:07:32.107Z,82.19
2024-01-25T02:09:59.122Z,81.10
2024-01-25T02:12:26.086Z,82.49
2024-01-25T02:14:52.939Z,82.52
2024-01-25T02:17:19.852Z,82.54
2024-01-25T02:19:46.888Z,82.45
2024-01-25T02:22:18.302Z,82.64
2024-01-25T02:24:46.361Z,82.64
2024-01-25T02:27:13.487Z,82.51
2024-01-25T02:29:40.485Z,80.39
2024-01-25T02:32:07.517Z,82.61
2024-01-25T02:34:34.463Z,82.09
2024-01-25T02:37:01.439Z,82.49
2024-01-25T02:39:28.356Z,82.78
2024-01-25T02:41:55.230Z,82.72
2024-01-25T02:44:22.133Z,82.57
2024-01-25T02:46:49.037Z,82.80
2024-01-25T02:49:16.455Z,81.41
2024-01-25T02:51:43.447Z,82.21
2024-01-25T02:54:10.367Z,82.47
2024-01-25T02:56:37.252Z,81.31
2024-01-25T02:59:04.148Z,81.92
2024-01-25T03:01:39.801Z,82.74
2024-01-25T03:04:07.023Z,82.62
2024-01-25T03:06:34.076Z,82.54
2024-01-25T03:09:01.147Z,82.65
2024-01-25T03:11:28.009Z,83.03
2024-01-25T03:13:54.912Z,83.09
2024-01-25T03:16:21.898Z,83.01
2024-01-25T03:18:48.840Z,83.16
2024-01-25T03:21:15.788Z,83.26
2024-01-25T03:23:42.660Z,83.13
2024-01-25T03:26:09.559Z,83.30
2024-01-25T03:28:36.476Z,83.48
2024-01-25T03:31:03.423Z,83.35
2024-01-25T03:33:30.489Z,83.47
2024-01-25T03:35:57.525Z,83.44
2024-01-25T03:38:24.417Z,83.28
2024-01-25T03:40:51.295Z,83.63
2024-01-25T03:43:20.868Z,83.51
2024-01-25T03:45:51.613Z,83.54
2024-01-25T03:48:18.958Z,83.52
2024-01-25T03:50:45.937Z,83.34
2024-01-25T03:53:12.807Z,84.26
2024-01-25T03:55:39.718Z,83.97
2024-01-25T03:58:06.604Z,83.68
2024-01-25T04:00:33.701Z,83.24
2024-01-25T04:03:00.748Z,83.63
2024-01-25T04:05:27.778Z,82.81
2024-01-25T04:07:54.833Z,83.76
2024-01-25T04:10:21.856Z,84.12
2024-01-25T04:12:48.917Z,83.78
2024-01-25T04:15:15.811Z,83.34
2024-01-25T04:17:42.787Z,83.45
2024-01-25T04:20:10.143Z,83.35
2024-01-25T04:22:37.942Z,83.54
2024-01-25T04:25:05.272Z,83.45
2024-01-25T04:27:32.197Z,83.79
2024-01-25T04:29:59.347Z,83.53
2024-01-25T04:32:26.268Z,83.31
2024-01-25T04:34:53.365Z,82.67
2024-01-25T04:37:20.421Z,83.69
2024-01-25T04:39:47.423Z,83.74
2024-01-25T04:42:14.399Z,83.45
2024-01-25T04:44:41.274Z,81.88
2024-01-25T04:47:08.151Z,83.01
2024-01-25T04:49:35.101Z,82.82
2024-01-25T04:52:02.058Z,83.38
2024-01-25T04:54:28.976Z,83.20
2024-01-25T04:56:55.863Z,82.18
2024-01-25T04:59:22.909Z,81.76
2024-01-25T05:01:49.902Z,81.81
2024-01-25T05:04:17.976Z,82.79
2024-01-25T05:06:44.986Z,82.86
2024-01-25T05:09:11.823Z,82.98
2024-01-25T05:11:41.896Z,82.17
2024-01-25T05:14:09.158Z,81.49
2024-01-25T05:16:36.105Z,82.84
2024-01-25T05:19:03.305Z,82.85
2024-01-25T05:21:30.391Z,82.57
2024-01-25T05:23:57.390Z,82.43
2024-01-25T05:26:24.518Z,83.14
2024-01-25T05:28:51.379Z,82.94
2024-01-25T05:31:18.510Z,82.75
2024-01-25T05:33:45.538Z,82.52
2024-01-25T05:36:12.471Z,83.10
2024-01-25T05:38:39.370Z,82.94
2024-01-25T05:41:06.219Z,83.10
2024-01-25T05:43:34.665Z,82.95
2024-01-25T05:46:04.662Z,83.27
2024-01-25T05:48:32.391Z,83.20
2024-01-25T05:50:59.399Z,83.32
2024-01-25T05:53:26.299Z,82.93
2024-01-25T05:55:53.185Z,83.39
2024-01-25T05:58:20.178Z,83.32
2024-01-25T06:00:47.254Z,83.37
2024-01-25T06:03:14.316Z,83.13
2024-01-25T06:05:41.385Z,83.57
2024-01-25T06:08:08.848Z,83.44
2024-01-25T06:10:35.927Z,83.27
2024-01-25T06:13:02.965Z,83.64
2024-01-25T06:15:33.703Z,83.73
2024-01-25T06:21:10.035Z,83.83
2024-01-25T06:26:37.793Z,83.88
2024-01-25T06:29:38.740Z,84.08
2024-01-25T06:32:46.100Z,83.95
2024-01-25T06:38:59.291Z,84.00
2024-01-25T06:45:58.527Z,83.98
2024-01-25T06:48:40.511Z,84.16
2024-01-25T07:05:35.690Z,84.25
2024-01-25T07:09:11.083Z,84.14
2024-01-25T07:21:41.813Z,84.35
2024-01-25T07:33:26.621Z,83.36
2024-01-25T07:45:13.495Z,84.48
2024-01-25T07:55:59.508Z,85.03
2024-01-25T08:00:48.664Z,84.48
2024-01-25T08:03:28.932Z,84.87
2024-01-25T08:06:15.269Z,84.24
2024-01-25T08:12:11.466Z,83.16
2024-01-25T08:15:42.343Z,83.50
2024-01-25T08:21:19.392Z,83.20
2024-01-25T08:30:45.358Z,82.59
2024-01-25T08:33:43.357Z,82.82
2024-01-25T08:36:44.809Z,82.08
2024-01-25T08:40:02.981Z,82.24
2024-01-25T08:42:27.783Z,82.80
2024-01-25T08:45:01.009Z,82.23
2024-01-25T08:48:02.595Z,81.99
2024-01-25T08:50:56.440Z,82.06
2024-01-25T09:00:22.795Z,83.00
2024-01-25T09:12:39.286Z,77.74
2024-01-25T09:42:40.719Z,73.45
